KHLGKCDI

Guest
Details From KHLG - WHEELING OHIO CO
To KCDI - CAMBRIDGE MUNI
Flight Number -
Tags generated
Created
Modified
Stats Distance 45 nm / 83 km
Max Altitude 3,400 ft / 1,036 m
Waypoints 3
Social Downloads 0
Likes 0
Share VATSIM

Download

Looking for another format? Having issues loading an existing format? Contact us
Advertisement - Login to hide

Notes

Basic altitude profile: - Ascent Rate: 1500ft/min - Ascent Speed: 250kts - Cruise Altitude: 8000ft - Cruise Speed: 330kts - Descent Rate: 1500ft/min - Descent Speed: 220kts Options: - Use NATs: yes - Use PACOTS: yes - Use low airways: yes - Use high airways: yes

Route

KHLG WINTS KCDI

ID Type Via Altitude Latitude Longitude Leg Dist Tot Dist Heading (true) Name
O KHLG APT - 0 ft / 0 m 40.17503˚ -80.64621˚ - 0 nm - WHEELING OHIO CO
WINTS FIX - 3,400 ft / 1,036 m 40.01111˚ -81.23093˚ 28 nm 28 nm 250° / 250° -
O KCDI APT - 0 ft / 0 m 39.97504˚ -81.57758˚ 16 nm 44 nm 262° / 262° CAMBRIDGE MUNI

Altitude Profile

Advertisement - Login to hide

KHLG

Details ICAO KHLG
Name WHEELING OHIO CO
Region United States
Timezone America/New_York (UTC-5.0)
Stats Elevation 1,195 ft / 364 m (AMSL)
Location 40.175028° -80.646206°
Runways 2
Magnetic Variation 8.805° W

METAR

KHLG 120753Z AUTO 25017G26KT 10SM OVC065 05/M04 A2958 RMK AO2 PK WND 23026/0733 SLP025 T00501039

Decode

TAF

TAF AMD KHLG 120802Z 1208/1306 25015G25KT P6SM OVC050 FM121100 26011G22KT 5SM -SN OVC010 FM121600 28014G30KT P6SM OVC025

Decode

Departure Runways

ID Width Length Bearing (true) Bearing (mag) Surface Threshold Offset Overrun Length
03 150 ft / 46 m 5,006 ft / 1,526 m 25.92° 34.73° Asphalt 0 ft / 0 m 0 ft / 0 m
16 150 ft / 46 m 4,502 ft / 1,372 m 151.13° 159.94° Asphalt 0 ft / 0 m 0 ft / 0 m
21 150 ft / 46 m 5,006 ft / 1,526 m 205.93° 214.74° Asphalt 0 ft / 0 m 0 ft / 0 m
34 150 ft / 46 m 4,502 ft / 1,372 m 331.13° 339.94° Asphalt 0 ft / 0 m 0 ft / 0 m

KCDI

Details ICAO KCDI
Name CAMBRIDGE MUNI
Region United States
Timezone America/New_York (UTC-5.0)
Stats Elevation 799 ft / 244 m (AMSL)
Location 39.975040° -81.577585°
Runways 1
Magnetic Variation 8.123° W

METAR

KCDI 120815Z AUTO 24004KT 10SM BKN032 OVC060 04/M02 A2964 RMK AO2 T00431017

Decode

TAF

Not found

Destination Runways

ID Width Length Bearing (true) Bearing (mag) Surface Threshold Offset Overrun Length
04 75 ft / 23 m 4,300 ft / 1,311 m 33.02° 41.14° Asphalt 400 ft / 122 m 0 ft / 0 m
22 75 ft / 23 m 4,300 ft / 1,311 m 213.03° 221.15° Asphalt 0 ft / 0 m 0 ft / 0 m

Approach Navaids

Runway Type Ident Frequency Range Bearing (true) Bearing (mag) Slope Elevation
22 Localiser ICZM 109.35 MHz 18 nm / 33 km 213.03° 221.16° - 799 ft / 244 m (AMSL)
22 DME ICZM 109.35 MHz 18 nm / 33 km - - - 799 ft / 244 m (AMSL)